Time;durP1;ratioP1;P1;durP2;ratioP2;P2;SDS_P1;SDS_P2;PMS_P1;PMS_P2;Temp;Humidity;BMP_temperature;BMP_pressure;BME280_temperature;BME280_humidity;BME280_pressure;Samples;Min_cycle;Max_cycle;Signal;HPM_P1;HPM_P2
2021/07/04 00:01:46;;;;;;;6.60;5.30;;;16.80;99.90;;;;;;5010627;28;20461;-76
2021/07/04 00:04:13;;;;;;;7.00;4.83;;;16.80;99.90;;;;;;5008487;28;20481;-74
2021/07/04 00:06:40;;;;;;;5.83;5.13;;;16.90;99.90;;;;;;5027415;28;20457;-74
2021/07/04 00:09:06;;;;;;;6.63;5.90;;;16.80;99.90;;;;;;5028937;28;20475;-75
2021/07/04 00:11:33;;;;;;;5.67;5.07;;;16.80;99.90;;;;;;5029201;28;20656;-75
2021/07/04 00:14:01;;;;;;;6.30;4.77;;;16.80;99.90;;;;;;5029870;28;20484;-75
2021/07/04 00:16:28;;;;;;;5.73;5.13;;;16.80;99.90;;;;;;5031649;28;20499;-75
2021/07/04 00:18:55;;;;;;;6.67;6.07;;;16.80;99.90;;;;;;5030691;28;20956;-75
2021/07/04 00:21:22;;;;;;;5.17;4.67;;;16.70;99.90;;;;;;5031869;28;20467;-75
2021/07/04 00:23:49;;;;;;;5.13;4.63;;;16.70;99.90;;;;;;5032494;28;20491;-75
2021/07/04 00:26:16;;;;;;;5.77;5.17;;;16.60;99.90;;;;;;5032544;28;20887;-73
2021/07/04 00:28:43;;;;;;;5.50;4.90;;;16.60;99.90;;;;;;5032226;28;20464;-75
2021/07/04 00:31:11;;;;;;;7.00;5.37;;;16.60;99.90;;;;;;5031240;28;20468;-74
2021/07/04 00:33:38;;;;;;;5.47;4.97;;;16.60;99.90;;;;;;5032190;28;20491;-75
2021/07/04 00:36:06;;;;;;;7.37;5.40;;;16.60;99.90;;;;;;5031575;28;20488;-75
2021/07/04 00:38:34;;;;;;;5.53;5.00;;;16.60;99.90;;;;;;5030946;28;20470;-75
2021/07/04 00:41:01;;;;;;;5.90;5.30;;;16.60;99.90;;;;;;5026951;28;21021;-75
2021/07/04 00:43:31;;;;;;;6.90;5.47;;;16.60;99.90;;;;;;5011599;28;20492;-81
2021/07/04 00:45:58;;;;;;;6.90;5.40;;;16.60;99.90;;;;;;5012236;28;20842;-75
2021/07/04 00:48:26;;;;;;;13.13;5.70;;;16.60;99.90;;;;;;5011709;28;20461;-75
2021/07/04 00:50:53;;;;;;;6.10;5.50;;;16.70;99.90;;;;;;5010955;28;20464;-75
2021/07/04 00:53:21;;;;;;;7.43;5.40;;;16.70;99.90;;;;;;5012780;28;20488;-76
2021/07/04 00:55:48;;;;;;;5.40;4.90;;;16.70;99.90;;;;;;5012139;28;20465;-76
2021/07/04 00:58:15;;;;;;;5.33;4.83;;;16.70;99.90;;;;;;5012286;28;20496;-76
2021/07/04 01:00:43;;;;;;;9.13;5.47;;;16.70;99.90;;;;;;5011515;28;20968;-75
2021/07/04 01:03:10;;;;;;;7.70;5.60;;;16.70;99.90;;;;;;5011768;28;20854;-75
2021/07/04 01:05:41;;;;;;;5.97;5.40;;;16.60;99.90;;;;;;5012031;28;20845;-76
2021/07/04 01:08:08;;;;;;;6.10;5.50;;;16.60;99.90;;;;;;5011711;28;20461;-75
2021/07/04 01:10:36;;;;;;;6.13;5.33;;;16.70;99.90;;;;;;5011514;28;20519;-76
2021/07/04 01:13:05;;;;;;;5.03;4.63;;;16.70;99.90;;;;;;5011783;28;20481;-76
2021/07/04 01:15:32;;;;;;;6.33;5.63;;;16.60;99.90;;;;;;5012303;28;20460;-74
2021/07/04 01:18:02;;;;;;;6.90;5.97;;;16.60;99.90;;;;;;5011650;28;20489;-75
2021/07/04 01:20:31;;;;;;;6.63;5.60;;;16.60;99.90;;;;;;5025695;28;20460;-75
2021/07/04 01:23:00;;;;;;;6.63;5.50;;;16.60;99.90;;;;;;5031763;28;20523;-75
2021/07/04 01:25:29;;;;;;;5.90;5.40;;;16.60;99.90;;;;;;5029580;28;20473;-75
2021/07/04 01:27:57;;;;;;;6.83;6.03;;;16.60;99.90;;;;;;5011675;28;20464;-75
2021/07/04 01:30:24;;;;;;;5.77;5.23;;;16.50;99.90;;;;;;5010779;28;20480;-75
2021/07/04 01:32:52;;;;;;;5.70;5.20;;;16.50;99.90;;;;;;5011147;28;20472;-76
2021/07/04 01:35:19;;;;;;;6.70;6.10;;;16.50;99.90;;;;;;5011850;28;20468;-76
2021/07/04 01:37:46;;;;;;;5.97;5.40;;;16.50;99.90;;;;;;5011125;28;20500;-74
2021/07/04 01:40:15;;;;;;;7.10;5.40;;;16.50;99.90;;;;;;5011436;28;20959;-75
2021/07/04 01:42:45;;;;;;;7.07;5.50;;;16.60;99.90;;;;;;5011510;28;20473;-74
2021/07/04 01:45:13;;;;;;;6.37;5.77;;;16.60;99.90;;;;;;5010666;28;20835;-75
2021/07/04 01:47:41;;;;;;;6.30;5.70;;;16.60;99.90;;;;;;5011750;28;20760;-76
2021/07/04 01:50:10;;;;;;;6.20;5.60;;;16.60;99.90;;;;;;5010263;28;20465;-75
2021/07/04 01:52:37;;;;;;;6.10;5.47;;;16.60;99.90;;;;;;5011096;28;20476;-74
2021/07/04 01:55:07;;;;;;;6.50;5.33;;;16.60;99.90;;;;;;5010695;28;20475;-75
2021/07/04 01:57:36;;;;;;;6.40;5.87;;;16.60;99.90;;;;;;5010360;28;20484;-75
2021/07/04 02:00:07;;;;;;;6.67;5.10;;;16.50;99.90;;;;;;5010580;28;20472;-74
2021/07/04 02:02:34;;;;;;;6.17;5.33;;;16.50;99.90;;;;;;5011215;28;20472;-75
2021/07/04 02:05:01;;;;;;;6.20;5.57;;;16.60;99.90;;;;;;5010532;28;20473;-76
2021/07/04 02:07:27;;;;;;;6.30;5.47;;;16.60;99.90;;;;;;5011024;28;20461;-75
2021/07/04 02:09:54;;;;;;;7.20;6.30;;;16.60;99.90;;;;;;5008909;28;20511;-75
2021/07/04 02:12:21;;;;;;;6.00;5.50;;;16.60;99.90;;;;;;5010259;28;20465;-75
2021/07/04 02:14:49;;;;;;;6.20;5.60;;;16.60;99.90;;;;;;5009186;28;20489;-75
2021/07/04 02:17:16;;;;;;;6.53;5.80;;;16.50;99.90;;;;;;5009897;28;20489;-75
2021/07/04 02:19:43;;;;;;;6.67;5.97;;;16.50;99.90;;;;;;5009125;28;20519;-75
2021/07/04 02:22:11;;;;;;;6.47;5.90;;;16.50;99.90;;;;;;5009218;28;20465;-76
2021/07/04 02:24:39;;;;;;;6.40;5.80;;;16.40;99.90;;;;;;5009355;28;20517;-75
2021/07/04 02:27:06;;;;;;;6.20;5.60;;;16.40;99.90;;;;;;5009468;28;20464;-76
2021/07/04 02:29:33;;;;;;;6.43;5.83;;;16.40;99.90;;;;;;5008381;28;20473;-76
2021/07/04 02:32:01;;;;;;;6.43;5.60;;;16.40;99.90;;;;;;5009446;28;20987;-73
2021/07/04 02:34:29;;;;;;;5.83;5.30;;;16.40;99.90;;;;;;5008485;28;20481;-76
2021/07/04 02:36:56;;;;;;;5.43;4.90;;;16.40;99.90;;;;;;5009009;28;20496;-74
2021/07/04 02:39:23;;;;;;;7.63;5.70;;;16.40;99.90;;;;;;5008538;28;20814;-75
2021/07/04 02:41:49;;;;;;;7.90;7.03;;;16.40;99.90;;;;;;5008623;28;20467;-76
2021/07/04 02:44:17;;;;;;;6.10;5.50;;;16.40;99.90;;;;;;5013177;28;20489;-74
2021/07/04 02:46:43;;;;;;;10.67;6.20;;;16.40;99.90;;;;;;5012276;28;20527;-74
2021/07/04 02:49:11;;;;;;;6.13;5.63;;;16.30;99.90;;;;;;5012272;28;20472;-75
2021/07/04 02:51:38;;;;;;;6.00;5.50;;;16.30;99.90;;;;;;5012575;28;20848;-75
2021/07/04 02:54:05;;;;;;;7.43;6.83;;;16.30;99.90;;;;;;5011872;28;20855;-74
2021/07/04 02:56:32;;;;;;;6.37;5.87;;;16.30;99.90;;;;;;5012474;28;20468;-75
2021/07/04 02:58:58;;;;;;;6.40;5.80;;;16.40;99.90;;;;;;5012122;28;20972;-75
2021/07/04 03:01:25;;;;;;;6.73;6.03;;;16.40;99.90;;;;;;5012152;28;20465;-75
2021/07/04 03:03:52;;;;;;;6.00;5.53;;;16.30;99.90;;;;;;5012081;28;20481;-74
2021/07/04 03:06:20;;;;;;;7.17;5.60;;;16.30;99.90;;;;;;5012267;28;20461;-75
2021/07/04 03:08:46;;;;;;;8.33;5.97;;;16.30;99.90;;;;;;5012073;28;20453;-75
2021/07/04 03:11:13;;;;;;;6.33;5.80;;;16.40;99.90;;;;;;5011724;28;20469;-74
2021/07/04 03:13:40;;;;;;;6.30;5.70;;;16.40;99.90;;;;;;5011936;28;20481;-75
2021/07/04 03:16:07;;;;;;;7.60;6.80;;;16.40;99.90;;;;;;5012144;28;20465;-74
2021/07/04 03:18:34;;;;;;;7.13;6.50;;;16.30;99.90;;;;;;5012049;28;20500;-75
2021/07/04 03:21:01;;;;;;;6.50;5.90;;;16.40;99.90;;;;;;5011491;28;20474;-73
2021/07/04 03:23:29;;;;;;;6.90;6.20;;;16.40;99.90;;;;;;5011859;28;20488;-75
2021/07/04 03:25:56;;;;;;;7.27;6.57;;;16.40;99.90;;;;;;5011704;28;20472;-75
2021/07/04 03:28:23;;;;;;;6.93;6.23;;;16.40;99.90;;;;;;5011837;28;20468;-76
2021/07/04 03:30:50;;;;;;;7.07;6.37;;;16.40;99.90;;;;;;5010933;28;20460;-74
2021/07/04 03:33:16;;;;;;;6.23;5.73;;;16.40;99.90;;;;;;5011177;28;20482;-76
2021/07/04 03:35:44;;;;;;;9.70;6.07;;;16.40;99.90;;;;;;5108306;22;20499;-70
2021/07/04 03:38:11;;;;;;;6.60;5.90;;;16.40;99.90;;;;;;5050899;28;20479;-71
2021/07/04 03:40:39;;;;;;;6.10;5.50;;;16.40;99.90;;;;;;5050948;28;20463;-70
2021/07/04 03:43:06;;;;;;;6.57;5.97;;;16.40;99.90;;;;;;5050904;28;20490;-71
2021/07/04 03:45:32;;;;;;;6.23;5.63;;;16.40;99.90;;;;;;5051255;28;20471;-70
2021/07/04 03:47:59;;;;;;;6.63;6.03;;;16.40;99.90;;;;;;5051308;28;20467;-70
2021/07/04 03:50:26;;;;;;;9.60;5.90;;;16.40;99.90;;;;;;5050352;28;20966;-71
2021/07/04 03:52:56;;;;;;;6.10;5.60;;;16.40;99.90;;;;;;5051274;28;20463;-71
2021/07/04 03:55:23;;;;;;;6.67;6.07;;;16.40;99.90;;;;;;5050448;28;20981;-70
2021/07/04 03:57:52;;;;;;;6.50;5.90;;;16.40;99.90;;;;;;5051347;28;20487;-69
2021/07/04 04:00:19;;;;;;;7.00;5.90;;;16.40;99.90;;;;;;5050462;28;21012;-70
2021/07/04 04:02:46;;;;;;;6.50;5.90;;;16.50;99.90;;;;;;5050583;28;20459;-69
2021/07/04 04:05:14;;;;;;;8.80;5.83;;;16.50;99.90;;;;;;5049671;28;20463;-69
2021/07/04 04:07:42;;;;;;;6.90;6.30;;;16.50;99.90;;;;;;5049902;28;20464;-69
2021/07/04 04:10:11;;;;;;;7.20;6.07;;;16.50;99.90;;;;;;5050301;28;20456;-70
2021/07/04 04:12:38;;;;;;;6.00;5.40;;;16.60;99.90;;;;;;5050747;28;20465;-69
2021/07/04 04:15:08;;;;;;;7.17;6.07;;;16.60;99.90;;;;;;5050687;28;20463;-69
2021/07/04 04:17:34;;;;;;;6.00;5.50;;;16.60;99.90;;;;;;5050720;28;20861;-70
2021/07/04 04:20:01;;;;;;;6.97;6.10;;;16.60;99.90;;;;;;5049702;28;20463;-68
2021/07/04 04:22:28;;;;;;;6.27;5.60;;;16.60;99.90;;;;;;5050623;28;20460;-69
2021/07/04 04:24:55;;;;;;;6.83;6.13;;;16.70;99.90;;;;;;5050055;28;20491;-69
2021/07/04 04:27:21;;;;;;;7.83;5.53;;;16.70;99.90;;;;;;5050463;28;20461;-69
2021/07/04 04:29:48;;;;;;;5.90;5.37;;;16.70;99.90;;;;;;5049657;28;20459;-69
2021/07/04 04:32:17;;;;;;;6.20;5.60;;;16.70;99.90;;;;;;5050367;28;20459;-69
2021/07/04 04:34:43;;;;;;;6.50;5.90;;;16.70;99.90;;;;;;5050322;28;20495;-70
2021/07/04 04:37:10;;;;;;;7.93;6.00;;;16.80;99.90;;;;;;5049916;28;20464;-69
2021/07/04 04:39:37;;;;;;;6.73;6.03;;;16.80;99.90;;;;;;5049691;28;20471;-69
2021/07/04 04:42:04;;;;;;;6.30;5.70;;;16.80;99.90;;;;;;5049930;28;20471;-70
2021/07/04 04:44:31;;;;;;;7.13;6.43;;;16.70;99.90;;;;;;5049614;28;20479;-69
2021/07/04 04:46:57;;;;;;;6.77;6.17;;;16.80;99.90;;;;;;5049811;28;20463;-69
2021/07/04 04:49:26;;;;;;;7.43;6.73;;;16.80;99.90;;;;;;5049248;28;20459;-70
2021/07/04 04:51:52;;;;;;;5.70;5.20;;;16.80;99.90;;;;;;5049568;28;20466;-69
2021/07/04 04:54:19;;;;;;;6.77;6.17;;;16.80;99.90;;;;;;5049723;28;20480;-70
2021/07/04 04:56:46;;;;;;;6.07;5.40;;;16.80;99.90;;;;;;5049423;28;20470;-69
2021/07/04 04:59:13;;;;;;;6.57;5.97;;;16.80;99.90;;;;;;5049319;28;20487;-70
2021/07/04 05:01:39;;;;;;;6.83;6.13;;;16.80;99.90;;;;;;5049459;28;20466;-70
2021/07/04 05:04:08;;;;;;;6.90;6.03;;;16.80;99.90;;;;;;5048835;28;21052;-69
2021/07/04 05:06:37;;;;;;;6.63;5.90;;;16.80;99.90;;;;;;5050142;28;20456;-70
2021/07/04 05:09:04;;;;;;;6.33;5.63;;;16.80;99.90;;;;;;5049419;28;20470;-70
2021/07/04 05:11:31;;;;;;;5.90;5.40;;;16.80;99.90;;;;;;5049298;28;20467;-70
2021/07/04 05:13:57;;;;;;;6.73;6.13;;;16.80;99.90;;;;;;5049551;28;20484;-69
2021/07/04 05:16:24;;;;;;;7.37;5.83;;;16.80;99.90;;;;;;5049521;28;20463;-69
2021/07/04 05:18:51;;;;;;;6.43;5.93;;;16.80;99.90;;;;;;5049439;28;21029;-68
2021/07/04 05:21:18;;;;;;;7.30;6.60;;;16.80;99.90;;;;;;5048903;28;20466;-69
2021/07/04 05:23:46;;;;;;;7.57;6.97;;;16.90;99.90;;;;;;5049593;28;20506;-70
2021/07/04 05:26:13;;;;;;;7.30;6.20;;;16.90;99.90;;;;;;5049468;28;20843;-69
2021/07/04 05:28:40;;;;;;;8.30;6.97;;;17.00;99.90;;;;;;5049264;28;20817;-70
2021/07/04 05:31:07;;;;;;;7.23;6.50;;;17.00;99.90;;;;;;5048518;28;20455;-69
2021/07/04 05:33:34;;;;;;;7.83;6.10;;;17.00;99.90;;;;;;5049068;28;20490;-70
2021/07/04 05:36:00;;;;;;;5.83;5.33;;;17.10;99.90;;;;;;5049412;28;20471;-69
2021/07/04 05:38:32;;;;;;;6.33;5.73;;;17.10;99.90;;;;;;5048759;28;20855;-70
2021/07/04 05:41:01;;;;;;;5.83;5.23;;;17.20;99.90;;;;;;5048830;28;20463;-68
2021/07/04 05:43:28;;;;;;;6.70;6.07;;;17.20;99.90;;;;;;5048894;28;20479;-70
2021/07/04 05:45:54;;;;;;;6.47;5.93;;;17.20;99.90;;;;;;5049164;28;20943;-69
2021/07/04 05:48:21;;;;;;;6.37;5.77;;;17.30;99.90;;;;;;5049192;28;20460;-69
2021/07/04 05:50:48;;;;;;;6.60;6.00;;;17.30;99.90;;;;;;5048512;28;20466;-69
2021/07/04 05:53:15;;;;;;;6.60;5.87;;;17.30;99.90;;;;;;5049237;28;20483;-69
2021/07/04 05:55:42;;;;;;;6.90;6.20;;;17.30;99.90;;;;;;5049107;28;20500;-69
2021/07/04 05:58:10;;;;;;;6.90;6.00;;;17.30;99.90;;;;;;5049070;28;20494;-69
2021/07/04 06:00:37;;;;;;;6.17;5.63;;;17.30;99.90;;;;;;5048567;28;20459;-69
2021/07/04 06:03:04;;;;;;;6.27;5.43;;;17.40;99.90;;;;;;5047956;28;20491;-69
2021/07/04 06:05:31;;;;;;;6.87;6.27;;;17.30;99.90;;;;;;5047579;28;20470;-69
2021/07/04 06:07:57;;;;;;;6.70;6.00;;;17.30;99.90;;;;;;5049037;28;20550;-70
2021/07/04 06:10:24;;;;;;;7.37;6.30;;;17.30;99.90;;;;;;5046701;28;20467;-69
2021/07/04 06:12:51;;;;;;;7.67;5.73;;;17.30;99.90;;;;;;5048535;28;20460;-69
2021/07/04 06:15:19;;;;;;;5.70;5.20;;;17.30;99.90;;;;;;5048925;28;20958;-69
2021/07/04 06:17:46;;;;;;;6.77;5.60;;;17.40;99.90;;;;;;5051041;28;21850;-69
2021/07/04 06:20:14;;;;;;;7.57;5.50;;;17.40;99.90;;;;;;5051982;28;20873;-70
2021/07/04 06:22:41;;;;;;;7.17;6.50;;;17.50;99.90;;;;;;5052246;28;20827;-69
2021/07/04 06:25:11;;;;;;;7.30;6.20;;;17.40;99.90;;;;;;5052884;28;20455;-69
2021/07/04 06:27:38;;;;;;;6.23;5.60;;;17.50;99.90;;;;;;5051650;28;20463;-70
2021/07/04 06:30:08;;;;;;;6.73;6.13;;;17.50;99.90;;;;;;5051800;28;20455;-70
2021/07/04 06:32:37;;;;;;;6.20;5.57;;;17.50;99.90;;;;;;5051340;28;20451;-70
2021/07/04 06:35:05;;;;;;;7.37;6.40;;;17.60;99.90;;;;;;5052437;28;20474;-69
2021/07/04 06:37:32;;;;;;;6.13;5.60;;;17.70;99.90;;;;;;5051995;28;20460;-70
2021/07/04 06:39:59;;;;;;;6.20;5.70;;;17.70;99.90;;;;;;5051932;28;20479;-70
2021/07/04 06:42:25;;;;;;;6.27;5.67;;;17.70;99.90;;;;;;5050920;28;20462;-69
2021/07/04 06:44:52;;;;;;;6.07;5.53;;;17.80;99.90;;;;;;5052111;28;20895;-69
2021/07/04 06:47:19;;;;;;;7.40;6.33;;;17.80;99.90;;;;;;5052269;28;20466;-68
2021/07/04 06:49:47;;;;;;;6.37;5.77;;;17.90;99.90;;;;;;5051907;28;20823;-69
2021/07/04 06:52:14;;;;;;;6.40;5.80;;;17.90;99.90;;;;;;5052259;28;20542;-69
2021/07/04 06:54:41;;;;;;;8.90;5.60;;;17.90;99.90;;;;;;5049857;28;20486;-69
2021/07/04 06:59:52;;;;;;;6.37;5.80;;;17.90;99.90;;;;;;5048264;28;21000;-69
2021/07/04 07:02:18;;;;;;;6.00;5.40;;;18.00;99.90;;;;;;5051627;28;20831;-69
2021/07/04 07:04:46;;;;;;;5.50;5.00;;;18.10;99.90;;;;;;5051319;28;20487;-69
2021/07/04 07:07:13;;;;;;;7.17;5.33;;;18.10;99.90;;;;;;5051283;28;20812;-69
2021/07/04 07:09:40;;;;;;;6.93;6.27;;;18.30;99.90;;;;;;5050162;28;20459;-69
2021/07/04 07:12:07;;;;;;;6.00;5.50;;;18.30;99.90;;;;;;5050997;28;20456;-69
2021/07/04 07:14:34;;;;;;;5.93;5.33;;;18.50;99.90;;;;;;5050031;28;20483;-69
2021/07/04 07:17:01;;;;;;;6.10;5.50;;;18.60;99.90;;;;;;5052318;28;21029;-69
2021/07/04 07:19:27;;;;;;;5.73;5.10;;;18.60;99.90;;;;;;5052686;28;20887;-69
2021/07/04 07:21:55;;;;;;;5.57;5.07;;;18.60;99.90;;;;;;5054129;28;20467;-69
2021/07/04 07:24:23;;;;;;;5.90;5.40;;;18.70;99.90;;;;;;5053905;28;20990;-69
2021/07/04 07:26:51;;;;;;;5.67;5.13;;;18.70;99.90;;;;;;5053594;28;20463;-69
2021/07/04 07:29:18;;;;;;;5.53;5.00;;;18.70;99.90;;;;;;5052925;28;20470;-69
2021/07/04 07:31:45;;;;;;;5.70;5.20;;;18.70;99.90;;;;;;5053647;28;20474;-69
2021/07/04 07:34:11;;;;;;;6.17;5.57;;;18.80;99.90;;;;;;5053158;28;20476;-69
2021/07/04 07:36:38;;;;;;;5.60;5.10;;;18.90;99.90;;;;;;5053418;28;20989;-69
2021/07/04 07:39:07;;;;;;;5.67;5.17;;;19.00;99.90;;;;;;5053297;28;20494;-69
2021/07/04 07:41:34;;;;;;;5.50;5.00;;;19.00;99.90;;;;;;5052907;28;20466;-69
2021/07/04 07:44:01;;;;;;;6.13;5.63;;;19.10;99.90;;;;;;5053557;28;20479;-69
2021/07/04 07:46:28;;;;;;;5.43;4.93;;;19.20;99.90;;;;;;5053243;28;20482;-69
2021/07/04 07:48:54;;;;;;;5.63;5.13;;;19.20;99.90;;;;;;5051752;28;20467;-69
2021/07/04 07:51:21;;;;;;;5.90;5.40;;;19.30;99.90;;;;;;5050892;28;20463;-69
2021/07/04 07:53:48;;;;;;;5.43;5.03;;;19.40;99.90;;;;;;5050977;28;20900;-69
2021/07/04 07:56:16;;;;;;;5.30;4.80;;;19.50;99.90;;;;;;5050392;28;20475;-69
2021/07/04 07:58:44;;;;;;;5.97;5.10;;;19.60;99.90;;;;;;5050360;28;20994;-69
2021/07/04 08:01:11;;;;;;;6.67;5.97;;;19.70;99.90;;;;;;5050493;28;20997;-69
2021/07/04 08:03:38;;;;;;;5.93;5.40;;;19.70;99.90;;;;;;5051029;28;20521;-69
2021/07/04 08:06:05;;;;;;;6.37;5.77;;;19.60;99.90;;;;;;5051315;28;20486;-69
2021/07/04 08:08:32;;;;;;;7.07;5.67;;;19.50;99.90;;;;;;5050607;28;20477;-68
2021/07/04 08:10:59;;;;;;;7.07;5.37;;;19.60;99.90;;;;;;5050338;28;20546;-68
2021/07/04 08:13:27;;;;;;;6.27;5.77;;;19.60;99.90;;;;;;5050721;28;21039;-69
2021/07/04 08:15:53;;;;;;;6.53;5.77;;;19.70;99.90;;;;;;5051455;28;20884;-68
2021/07/04 08:18:21;;;;;;;6.17;5.57;;;19.90;99.90;;;;;;5051090;28;20463;-68
2021/07/04 08:20:48;;;;;;;5.97;5.47;;;20.00;99.90;;;;;;5051311;28;20471;-69
2021/07/04 08:23:16;;;;;;;6.07;5.57;;;20.20;99.90;;;;;;5051094;28;20486;-69
2021/07/04 08:25:43;;;;;;;6.40;5.80;;;20.30;99.90;;;;;;5051144;28;20559;-69
2021/07/04 08:28:10;;;;;;;6.03;5.53;;;20.40;99.90;;;;;;5052187;28;20467;-69
2021/07/04 08:30:38;;;;;;;6.00;5.50;;;20.50;99.90;;;;;;5032042;28;20460;-69
2021/07/04 08:33:05;;;;;;;5.43;5.03;;;20.60;99.90;;;;;;5031684;28;20727;-69
2021/07/04 08:35:32;;;;;;;5.43;4.93;;;20.70;99.90;;;;;;5031651;28;20472;-69
2021/07/04 08:37:59;;;;;;;5.60;5.10;;;20.70;99.90;;;;;;5032048;28;20457;-69
2021/07/04 08:40:25;;;;;;;6.50;4.90;;;20.60;99.90;;;;;;5030126;28;20500;-69
2021/07/04 08:42:52;;;;;;;5.43;5.00;;;20.60;99.90;;;;;;5031459;28;20463;-68
2021/07/04 08:45:19;;;;;;;5.30;4.90;;;20.50;99.90;;;;;;5031630;28;20985;-69
2021/07/04 08:47:47;;;;;;;5.97;5.37;;;20.50;99.90;;;;;;5037224;28;21179;-69
2021/07/04 08:50:14;;;;;;;5.53;5.03;;;20.50;99.90;;;;;;5051173;28;21148;-69
2021/07/04 08:52:41;;;;;;;5.77;5.13;;;20.50;99.90;;;;;;5051150;28;20467;-69
2021/07/04 08:55:10;;;;;;;5.17;4.67;;;20.40;99.90;;;;;;5051276;28;20460;-69
2021/07/04 08:57:37;;;;;;;6.63;5.20;;;20.40;99.90;;;;;;5051057;28;20455;-69
2021/07/04 09:00:05;;;;;;;5.60;5.10;;;20.40;99.90;;;;;;5050875;28;20490;-69
2021/07/04 09:02:34;;;;;;;4.77;4.37;;;20.50;99.90;;;;;;5051441;28;20463;-69
2021/07/04 09:05:06;;;;;;;5.43;4.90;;;20.50;99.90;;;;;;5050072;28;20466;-69
2021/07/04 09:07:33;;;;;;;4.87;4.47;;;20.60;99.90;;;;;;5047103;28;20459;-70
2021/07/04 09:10:02;;;;;;;4.73;4.27;;;20.60;99.90;;;;;;5049086;28;20480;-70
2021/07/04 09:12:37;;;;;;;4.83;4.27;;;20.70;99.90;;;;;;5049311;28;20570;-70
2021/07/04 09:15:13;;;;;;;5.43;5.00;;;20.60;99.90;;;;;;5048497;28;20470;-70
2021/07/04 09:17:44;;;;;;;5.10;4.67;;;20.60;99.90;;;;;;5047584;28;20486;-70
2021/07/04 09:20:16;;;;;;;5.00;4.40;;;20.60;99.90;;;;;;5045322;28;20955;-70
2021/07/04 09:22:45;;;;;;;4.43;4.10;;;20.60;99.90;;;;;;5048561;28;20455;-69
2021/07/04 09:25:14;;;;;;;3.70;3.40;;;20.60;99.90;;;;;;5043007;28;20459;-70
2021/07/04 09:27:42;;;;;;;4.30;3.90;;;20.70;99.90;;;;;;5049413;28;20471;-70
2021/07/04 09:30:16;;;;;;;4.90;4.10;;;20.70;99.90;;;;;;5048542;28;20883;-70
2021/07/04 09:32:48;;;;;;;4.43;4.03;;;20.80;99.90;;;;;;5049088;28;20475;-70
2021/07/04 09:35:19;;;;;;;5.20;4.50;;;20.80;99.90;;;;;;5034583;28;20967;-70
2021/07/04 09:37:48;;;;;;;5.33;4.83;;;20.80;99.90;;;;;;5046228;28;20465;-70
2021/07/04 09:40:20;;;;;;;4.67;4.27;;;20.90;99.90;;;;;;5040385;28;20586;-69
2021/07/04 09:43:03;;;;;;;4.50;4.20;;;20.90;99.90;;;;;;5047909;28;20475;-68
2021/07/04 09:45:46;;;;;;;4.90;4.47;;;21.00;99.90;;;;;;5048564;28;20542;-70
2021/07/04 09:48:14;;;;;;;4.97;4.57;;;21.10;99.90;;;;;;5048476;28;20482;-69
2021/07/04 09:50:43;;;;;;;5.30;4.80;;;21.10;99.90;;;;;;5047531;28;20495;-69
2021/07/04 09:53:10;;;;;;;5.27;4.67;;;21.20;99.90;;;;;;5048006;28;20487;-69
2021/07/04 09:55:38;;;;;;;8.03;5.33;;;21.30;99.90;;;;;;5047588;28;20474;-69
2021/07/04 09:58:07;;;;;;;4.50;4.07;;;21.40;99.90;;;;;;5048601;28;20995;-69
2021/07/04 10:00:36;;;;;;;5.10;4.70;;;21.40;99.90;;;;;;5046790;28;20487;-70
2021/07/04 10:03:15;;;;;;;4.67;4.27;;;21.50;99.90;;;;;;5048232;28;20479;-71
2021/07/04 10:05:45;;;;;;;4.20;3.80;;;21.50;99.90;;;;;;5047480;28;20459;-69
2021/07/04 10:08:26;;;;;;;5.07;4.57;;;21.60;99.90;;;;;;5046981;28;20463;-69
2021/07/04 10:10:55;;;;;;;4.60;4.20;;;21.60;99.90;;;;;;5038955;28;20500;-69
2021/07/04 10:13:22;;;;;;;4.70;4.30;;;21.50;99.90;;;;;;5039073;28;20499;-69
2021/07/04 10:15:49;;;;;;;4.80;4.23;;;21.40;99.90;;;;;;5033236;28;20464;-69
2021/07/04 10:18:18;;;;;;;7.27;4.60;;;21.40;99.90;;;;;;5047766;28;20460;-70
2021/07/04 10:20:48;;;;;;;4.63;4.23;;;21.20;99.90;;;;;;5047651;28;20476;-70
2021/07/04 10:23:18;;;;;;;4.50;4.10;;;21.20;99.90;;;;;;5048211;28;20483;-69
2021/07/04 10:25:45;;;;;;;4.73;4.33;;;21.10;99.90;;;;;;5048073;28;20534;-69
2021/07/04 10:28:14;;;;;;;5.50;5.00;;;21.20;99.90;;;;;;5048725;28;20667;-69
2021/07/04 10:30:42;;;;;;;5.53;5.00;;;21.10;99.90;;;;;;5047783;28;20463;-68
2021/07/04 10:33:16;;;;;;;4.23;3.93;;;21.10;99.90;;;;;;5048516;28;20486;-68
2021/07/04 10:36:03;;;;;;;4.03;3.73;;;21.20;99.90;;;;;;5048168;28;20467;-68
2021/07/04 10:38:43;;;;;;;4.80;4.40;;;21.20;99.90;;;;;;5048150;28;21076;-68
2021/07/04 10:41:12;;;;;;;5.10;4.60;;;21.20;99.90;;;;;;5048013;28;20490;-68
2021/07/04 10:44:03;;;;;;;4.33;3.93;;;21.10;99.90;;;;;;5047739;28;20486;-70
2021/07/04 10:47:02;;;;;;;4.93;4.53;;;21.10;99.90;;;;;;5047784;28;20463;-69
2021/07/04 10:49:39;;;;;;;4.40;4.00;;;21.10;99.90;;;;;;5041231;28;20518;-68
2021/07/04 10:52:13;;;;;;;4.60;4.20;;;21.00;99.90;;;;;;5027299;28;20464;-69
2021/07/04 10:55:05;;;;;;;4.40;4.00;;;21.00;99.90;;;;;;5027285;28;20571;-69
2021/07/04 10:57:33;;;;;;;4.73;4.33;;;20.90;99.90;;;;;;5020826;28;20465;-69
2021/07/04 11:00:18;;;;;;;5.30;4.80;;;20.90;99.90;;;;;;5027232;28;20495;-68
2021/07/04 11:02:46;;;;;;;5.03;4.57;;;20.90;99.90;;;;;;5028131;28;20456;-70
2021/07/04 11:05:15;;;;;;;4.50;4.10;;;20.90;99.90;;;;;;5031625;28;20472;-69
2021/07/04 11:08:06;;;;;;;4.30;4.00;;;20.90;99.90;;;;;;5031894;28;20468;-70
2021/07/04 11:10:34;;;;;;;4.50;4.10;;;20.90;99.90;;;;;;5030789;28;20462;-72
2021/07/04 11:13:30;;;;;;;4.20;3.90;;;21.00;99.90;;;;;;5031136;28;20479;-67
2021/07/04 11:16:22;;;;;;;5.03;4.27;;;21.00;99.90;;;;;;5051752;22;20494;-67
2021/07/04 11:18:51;;;;;;;4.73;4.20;;;21.10;99.90;;;;;;5051399;28;20463;-67
2021/07/04 11:21:21;;;;;;;4.83;4.37;;;21.10;99.90;;;;;;5047815;28;20594;-67
2021/07/04 11:24:16;;;;;;;5.10;4.70;;;21.20;99.90;;;;;;5041674;28;20484;-67
2021/07/04 11:26:43;;;;;;;5.13;4.63;;;21.20;99.90;;;;;;5031986;28;20497;-68
2021/07/04 11:29:13;;;;;;;6.33;4.70;;;21.30;99.90;;;;;;5031105;28;20514;-67
2021/07/04 11:31:46;;;;;;;4.70;4.30;;;21.30;99.90;;;;;;5030958;28;20460;-67
2021/07/04 11:34:13;;;;;;;4.50;4.20;;;21.30;99.90;;;;;;5031562;28;20574;-68
2021/07/04 11:36:39;;;;;;;4.60;4.10;;;21.40;99.90;;;;;;5031817;28;20467;-69
2021/07/04 11:39:10;;;;;;;4.30;3.90;;;21.40;99.90;;;;;;5031601;28;20460;-67
2021/07/04 11:41:42;;;;;;;3.73;3.40;;;21.40;99.90;;;;;;5031386;28;20490;-68
2021/07/04 11:44:11;;;;;;;4.50;4.10;;;21.40;99.90;;;;;;5031587;28;20484;-67
2021/07/04 11:46:39;;;;;;;4.37;3.70;;;21.40;99.90;;;;;;5031209;28;20468;-68
2021/07/04 11:49:08;;;;;;;4.13;3.83;;;21.40;99.90;;;;;;5031304;28;20471;-67
2021/07/04 11:51:42;;;;;;;4.07;3.67;;;21.40;99.90;;;;;;5031272;28;20467;-67
2021/07/04 11:54:14;;;;;;;4.43;4.00;;;21.40;99.90;;;;;;5031304;28;20481;-68
2021/07/04 11:56:42;;;;;;;4.30;3.70;;;21.40;99.90;;;;;;5031375;28;20468;-67
2021/07/04 11:59:20;;;;;;;4.07;3.77;;;21.30;99.90;;;;;;5030710;28;20464;-67
2021/07/04 12:01:50;;;;;;;4.70;4.30;;;21.30;99.90;;;;;;5031032;28;20448;-67
2021/07/04 12:04:19;;;;;;;4.13;3.83;;;21.30;99.90;;;;;;5031003;28;20510;-67
2021/07/04 12:07:07;;;;;;;4.17;3.77;;;21.20;99.90;;;;;;5029726;28;20467;-68
2021/07/04 12:09:41;;;;;;;4.37;3.97;;;21.20;99.90;;;;;;5024421;28;20484;-67
2021/07/04 12:12:14;;;;;;;3.80;3.50;;;21.20;99.90;;;;;;5030405;28;20461;-67
2021/07/04 12:14:41;;;;;;;4.80;4.40;;;21.20;99.90;;;;;;5029682;28;21164;-67
2021/07/04 12:17:32;;;;;;;5.10;4.60;;;21.20;99.90;;;;;;5030702;28;20475;-67
2021/07/04 12:20:06;;;;;;;5.23;4.03;;;21.30;99.90;;;;;;5010566;28;20924;-68
2021/07/04 12:22:35;;;;;;;4.60;4.20;;;21.30;99.90;;;;;;5030479;28;20464;-68
2021/07/04 12:25:11;;;;;;;4.77;4.27;;;21.40;99.90;;;;;;5030974;28;20463;-67
2021/07/04 12:27:44;;;;;;;4.90;4.50;;;21.50;99.90;;;;;;5030708;28;20502;-68
2021/07/04 12:30:18;;;;;;;4.80;4.40;;;21.70;99.90;;;;;;5030291;28;20491;-68
2021/07/04 12:32:47;;;;;;;6.27;5.13;;;21.80;99.90;;;;;;5030179;28;20475;-67
2021/07/04 12:35:31;;;;;;;6.63;4.30;;;21.90;99.90;;;;;;5030347;28;20567;-68
2021/07/04 12:38:00;;;;;;;4.50;4.20;;;22.00;99.90;;;;;;5028255;28;20487;-68
2021/07/04 12:40:31;;;;;;;4.33;4.00;;;22.00;99.90;;;;;;5029332;28;20516;-68
2021/07/04 12:43:07;;;;;;;3.93;3.60;;;22.10;99.90;;;;;;5030007;28;20841;-67
2021/07/04 12:45:34;;;;;;;5.93;3.93;;;22.10;99.90;;;;;;5030431;28;20471;-67
2021/07/04 12:48:04;;;;;;;4.53;4.13;;;22.10;99.90;;;;;;5043649;28;20455;-69
2021/07/04 12:50:47;;;;;;;3.87;3.57;;;22.20;99.90;;;;;;5030954;28;20748;-68
2021/07/04 12:53:14;;;;;;;4.23;3.83;;;22.40;99.90;;;;;;5029742;28;20472;-68
2021/07/04 12:55:51;;;;;;;4.07;3.67;;;22.40;99.90;;;;;;5034284;28;20464;-69
2021/07/04 12:58:24;;;;;;;4.47;4.07;;;22.50;99.90;;;;;;5030736;28;20955;-69
2021/07/04 13:00:51;;;;;;;3.60;3.30;;;22.50;99.90;;;;;;5029968;28;20502;-67